sensor_id;sensor_type;location;lat;lon;timestamp;pressure;altitude;pressure_sealevel;temperature;humidity
8061;BME280;4073;42.626;25.386;2024-03-08T00:00:14;97316.28;;;6.13;100.00
8061;BME280;4073;42.626;25.386;2024-03-08T00:02:41;97317.56;;;6.11;100.00
8061;BME280;4073;42.626;25.386;2024-03-08T00:05:08;97308.22;;;6.08;100.00
8061;BME280;4073;42.626;25.386;2024-03-08T00:07:37;97315.69;;;6.11;100.00
8061;BME280;4073;42.626;25.386;2024-03-08T00:10:04;97320.22;;;6.11;100.00
8061;BME280;4073;42.626;25.386;2024-03-08T00:12:30;97315.16;;;6.09;100.00
8061;BME280;4073;42.626;25.386;2024-03-08T00:14:56;97319.97;;;6.12;100.00
8061;BME280;4073;42.626;25.386;2024-03-08T00:17:22;97301.53;;;6.06;100.00
8061;BME280;4073;42.626;25.386;2024-03-08T00:19:50;97304.28;;;6.11;100.00
8061;BME280;4073;42.626;25.386;2024-03-08T00:22:16;97307.50;;;6.13;100.00
8061;BME280;4073;42.626;25.386;2024-03-08T00:24:42;97302.19;;;6.13;100.00
8061;BME280;4073;42.626;25.386;2024-03-08T00:27:08;97300.69;;;6.17;100.00
8061;BME280;4073;42.626;25.386;2024-03-08T00:29:34;97293.75;;;6.16;100.00
8061;BME280;4073;42.626;25.386;2024-03-08T00:32:00;97286.03;;;6.14;100.00
8061;BME280;4073;42.626;25.386;2024-03-08T00:34:26;97296.41;;;6.16;100.00
8061;BME280;4073;42.626;25.386;2024-03-08T00:36:52;97292.22;;;6.20;100.00
8061;BME280;4073;42.626;25.386;2024-03-08T00:39:18;97294.09;;;6.19;100.00
8061;BME280;4073;42.626;25.386;2024-03-08T00:41:46;97294.31;;;6.18;100.00
8061;BME280;4073;42.626;25.386;2024-03-08T00:44:11;97291.91;;;6.16;100.00
8061;BME280;4073;42.626;25.386;2024-03-08T00:46:37;97293.97;;;6.14;100.00
8061;BME280;4073;42.626;25.386;2024-03-08T00:49:03;97292.78;;;6.05;100.00
8061;BME280;4073;42.626;25.386;2024-03-08T00:51:28;97294.88;;;6.03;100.00
8061;BME280;4073;42.626;25.386;2024-03-08T00:53:54;97299.69;;;6.06;100.00
8061;BME280;4073;42.626;25.386;2024-03-08T00:56:20;97292.38;;;5.97;100.00
8061;BME280;4073;42.626;25.386;2024-03-08T00:58:46;97296.22;;;6.06;100.00
8061;BME280;4073;42.626;25.386;2024-03-08T01:01:13;97298.88;;;6.06;100.00
8061;BME280;4073;42.626;25.386;2024-03-08T01:03:43;97288.50;;;6.04;100.00
8061;BME280;4073;42.626;25.386;2024-03-08T01:06:08;97288.75;;;6.03;100.00
8061;BME280;4073;42.626;25.386;2024-03-08T01:08:34;97283.19;;;6.04;100.00
8061;BME280;4073;42.626;25.386;2024-03-08T01:10:59;97287.25;;;6.07;100.00
8061;BME280;4073;42.626;25.386;2024-03-08T01:13:25;97290.19;;;6.10;100.00
8061;BME280;4073;42.626;25.386;2024-03-08T01:15:51;97290.91;;;6.06;100.00
8061;BME280;4073;42.626;25.386;2024-03-08T01:18:16;97288.97;;;6.01;100.00
8061;BME280;4073;42.626;25.386;2024-03-08T01:20:42;97292.44;;;6.02;100.00
8061;BME280;4073;42.626;25.386;2024-03-08T01:23:07;97294.38;;;6.06;100.00
8061;BME280;4073;42.626;25.386;2024-03-08T01:25:34;97293.34;;;6.07;100.00
8061;BME280;4073;42.626;25.386;2024-03-08T01:27:59;97289.38;;;6.10;100.00
8061;BME280;4073;42.626;25.386;2024-03-08T01:30:25;97299.75;;;6.11;100.00
8061;BME280;4073;42.626;25.386;2024-03-08T01:32:50;97296.00;;;6.07;100.00
8061;BME280;4073;42.626;25.386;2024-03-08T01:35:16;97293.97;;;6.14;100.00
8061;BME280;4073;42.626;25.386;2024-03-08T01:37:41;97294.97;;;6.08;100.00
8061;BME280;4073;42.626;25.386;2024-03-08T01:40:07;97302.41;;;6.11;100.00
8061;BME280;4073;42.626;25.386;2024-03-08T01:42:34;97303.25;;;6.12;100.00
8061;BME280;4073;42.626;25.386;2024-03-08T01:45:05;97307.72;;;6.11;100.00
8061;BME280;4073;42.626;25.386;2024-03-08T01:47:32;97302.13;;;6.08;100.00
8061;BME280;4073;42.626;25.386;2024-03-08T01:49:59;97302.94;;;6.08;100.00
8061;BME280;4073;42.626;25.386;2024-03-08T01:52:28;97297.63;;;6.08;100.00
8061;BME280;4073;42.626;25.386;2024-03-08T01:54:54;97296.94;;;6.01;100.00
8061;BME280;4073;42.626;25.386;2024-03-08T01:57:20;97304.50;;;5.93;100.00
8061;BME280;4073;42.626;25.386;2024-03-08T01:59:46;97306.66;;;5.96;100.00
8061;BME280;4073;42.626;25.386;2024-03-08T02:02:14;97305.00;;;5.90;100.00
8061;BME280;4073;42.626;25.386;2024-03-08T02:04:44;97301.84;;;5.93;100.00
8061;BME280;4073;42.626;25.386;2024-03-08T02:07:09;97303.00;;;5.97;100.00
8061;BME280;4073;42.626;25.386;2024-03-08T02:09:35;97299.19;;;5.93;100.00
8061;BME280;4073;42.626;25.386;2024-03-08T02:12:02;97298.88;;;5.89;100.00
8061;BME280;4073;42.626;25.386;2024-03-08T02:14:28;97303.03;;;5.85;100.00
8061;BME280;4073;42.626;25.386;2024-03-08T02:16:53;97301.06;;;5.81;100.00
8061;BME280;4073;42.626;25.386;2024-03-08T02:19:19;97298.22;;;5.71;100.00
8061;BME280;4073;42.626;25.386;2024-03-08T02:21:46;97306.50;;;5.74;100.00
8061;BME280;4073;42.626;25.386;2024-03-08T02:24:12;97287.84;;;5.69;100.00
8061;BME280;4073;42.626;25.386;2024-03-08T02:26:38;97298.31;;;5.76;100.00
8061;BME280;4073;42.626;25.386;2024-03-08T02:29:04;97296.81;;;5.80;100.00
8061;BME280;4073;42.626;25.386;2024-03-08T02:31:30;97293.97;;;5.81;100.00
8061;BME280;4073;42.626;25.386;2024-03-08T02:33:55;97295.22;;;5.67;100.00
8061;BME280;4073;42.626;25.386;2024-03-08T02:36:21;97280.06;;;5.63;100.00
8061;BME280;4073;42.626;25.386;2024-03-08T02:38:46;97294.91;;;5.64;100.00
8061;BME280;4073;42.626;25.386;2024-03-08T02:41:12;97290.97;;;5.66;100.00
8061;BME280;4073;42.626;25.386;2024-03-08T02:43:38;97294.22;;;5.68;100.00
8061;BME280;4073;42.626;25.386;2024-03-08T02:46:03;97292.81;;;5.66;100.00
8061;BME280;4073;42.626;25.386;2024-03-08T02:48:30;97296.28;;;5.66;100.00
8061;BME280;4073;42.626;25.386;2024-03-08T02:50:56;97300.78;;;5.66;100.00
8061;BME280;4073;42.626;25.386;2024-03-08T02:53:21;97301.28;;;5.63;100.00
8061;BME280;4073;42.626;25.386;2024-03-08T02:55:47;97285.41;;;5.51;100.00
8061;BME280;4073;42.626;25.386;2024-03-08T02:58:12;97301.28;;;5.63;100.00
8061;BME280;4073;42.626;25.386;2024-03-08T03:00:40;97299.53;;;5.68;100.00
8061;BME280;4073;42.626;25.386;2024-03-08T03:03:06;97298.47;;;5.69;100.00
8061;BME280;4073;42.626;25.386;2024-03-08T03:05:32;97296.28;;;5.66;100.00
8061;BME280;4073;42.626;25.386;2024-03-08T03:07:59;97293.56;;;5.61;100.00
8061;BME280;4073;42.626;25.386;2024-03-08T03:10:25;97285.50;;;5.56;100.00
8061;BME280;4073;42.626;25.386;2024-03-08T03:12:51;97291.59;;;5.57;100.00
8061;BME280;4073;42.626;25.386;2024-03-08T03:15:17;97287.25;;;5.51;100.00
8061;BME280;4073;42.626;25.386;2024-03-08T03:17:50;97286.44;;;5.50;100.00
8061;BME280;4073;42.626;25.386;2024-03-08T03:20:19;97295.53;;;5.54;100.00
8061;BME280;4073;42.626;25.386;2024-03-08T03:23:14;97287.63;;;5.43;100.00
8061;BME280;4073;42.626;25.386;2024-03-08T03:25:39;97289.63;;;5.35;100.00
8061;BME280;4073;42.626;25.386;2024-03-08T03:28:06;97294.09;;;5.35;100.00
8061;BME280;4073;42.626;25.386;2024-03-08T03:30:33;97294.25;;;5.28;100.00
8061;BME280;4073;42.626;25.386;2024-03-08T03:33:02;97289.84;;;5.34;100.00
8061;BME280;4073;42.626;25.386;2024-03-08T03:35:32;97292.25;;;5.35;100.00
8061;BME280;4073;42.626;25.386;2024-03-08T03:37:58;97297.88;;;5.39;100.00
8061;BME280;4073;42.626;25.386;2024-03-08T03:40:39;97283.97;;;5.32;100.00
8061;BME280;4073;42.626;25.386;2024-03-08T03:43:05;97286.28;;;5.28;100.00
8061;BME280;4073;42.626;25.386;2024-03-08T03:45:31;97303.22;;;5.27;100.00
8061;BME280;4073;42.626;25.386;2024-03-08T03:48:05;97314.06;;;5.26;100.00
8061;BME280;4073;42.626;25.386;2024-03-08T03:50:31;97299.78;;;5.27;100.00
8061;BME280;4073;42.626;25.386;2024-03-08T03:52:59;97304.66;;;5.18;100.00
8061;BME280;4073;42.626;25.386;2024-03-08T03:55:25;97306.56;;;5.23;100.00
8061;BME280;4073;42.626;25.386;2024-03-08T03:57:50;97307.16;;;5.25;100.00
8061;BME280;4073;42.626;25.386;2024-03-08T04:00:16;97306.56;;;5.23;100.00
8061;BME280;4073;42.626;25.386;2024-03-08T04:02:42;97305.91;;;5.16;100.00
8061;BME280;4073;42.626;25.386;2024-03-08T04:05:08;97307.75;;;5.15;100.00
8061;BME280;4073;42.626;25.386;2024-03-08T04:07:35;97309.13;;;5.18;100.00
8061;BME280;4073;42.626;25.386;2024-03-08T04:10:05;97313.03;;;5.27;100.00
8061;BME280;4073;42.626;25.386;2024-03-08T04:12:32;97321.78;;;5.27;100.00
8061;BME280;4073;42.626;25.386;2024-03-08T04:14:58;97317.88;;;5.30;100.00
8061;BME280;4073;42.626;25.386;2024-03-08T04:17:23;97318.34;;;5.27;100.00
8061;BME280;4073;42.626;25.386;2024-03-08T04:19:52;97326.28;;;5.27;100.00
8061;BME280;4073;42.626;25.386;2024-03-08T04:22:18;97324.44;;;5.27;100.00
8061;BME280;4073;42.626;25.386;2024-03-08T04:24:44;97325.47;;;5.26;100.00
8061;BME280;4073;42.626;25.386;2024-03-08T04:27:10;97329.41;;;5.24;100.00
8061;BME280;4073;42.626;25.386;2024-03-08T04:29:35;97331.47;;;5.22;100.00
8061;BME280;4073;42.626;25.386;2024-03-08T04:32:05;97328.50;;;5.18;100.00
8061;BME280;4073;42.626;25.386;2024-03-08T04:34:32;97324.78;;;5.19;100.00
8061;BME280;4073;42.626;25.386;2024-03-08T04:36:58;97317.09;;;5.18;100.00
8061;BME280;4073;42.626;25.386;2024-03-08T04:39:24;97326.41;;;5.20;100.00
8061;BME280;4073;42.626;25.386;2024-03-08T04:41:49;97326.31;;;5.15;100.00
8061;BME280;4073;42.626;25.386;2024-03-08T04:44:16;97322.47;;;5.23;100.00
8061;BME280;4073;42.626;25.386;2024-03-08T04:46:43;97324.66;;;5.26;100.00
8061;BME280;4073;42.626;25.386;2024-03-08T04:49:09;97337.81;;;5.32;100.00
8061;BME280;4073;42.626;25.386;2024-03-08T04:51:37;97339.75;;;5.37;100.00
8061;BME280;4073;42.626;25.386;2024-03-08T04:54:02;97338.69;;;5.38;100.00
8061;BME280;4073;42.626;25.386;2024-03-08T04:56:30;97336.06;;;5.38;100.00
8061;BME280;4073;42.626;25.386;2024-03-08T04:58:55;97328.66;;;5.40;100.00
8061;BME280;4073;42.626;25.386;2024-03-08T05:01:21;97338.47;;;5.39;100.00
8061;BME280;4073;42.626;25.386;2024-03-08T05:03:47;97344.00;;;5.38;100.00
8061;BME280;4073;42.626;25.386;2024-03-08T05:06:18;97347.47;;;5.38;100.00
8061;BME280;4073;42.626;25.386;2024-03-08T05:08:43;97341.22;;;5.33;100.00
8061;BME280;4073;42.626;25.386;2024-03-08T05:11:09;97348.25;;;5.39;100.00
8061;BME280;4073;42.626;25.386;2024-03-08T05:13:34;97338.34;;;5.34;100.00
8061;BME280;4073;42.626;25.386;2024-03-08T05:16:00;97353.78;;;5.37;100.00
8061;BME280;4073;42.626;25.386;2024-03-08T05:18:26;97343.78;;;5.28;100.00
8061;BME280;4073;42.626;25.386;2024-03-08T05:20:53;97355.06;;;5.35;100.00
8061;BME280;4073;42.626;25.386;2024-03-08T05:23:19;97351.84;;;5.33;100.00
8061;BME280;4073;42.626;25.386;2024-03-08T05:25:45;97354.50;;;5.33;100.00
8061;BME280;4073;42.626;25.386;2024-03-08T05:28:14;97353.31;;;5.40;100.00
8061;BME280;4073;42.626;25.386;2024-03-08T05:30:39;97359.09;;;5.37;100.00
8061;BME280;4073;42.626;25.386;2024-03-08T05:33:05;97363.47;;;5.43;100.00
8061;BME280;4073;42.626;25.386;2024-03-08T05:35:30;97361.97;;;5.47;100.00
8061;BME280;4073;42.626;25.386;2024-03-08T05:37:57;97358.75;;;5.46;100.00
8061;BME280;4073;42.626;25.386;2024-03-08T05:40:23;97357.47;;;5.48;100.00
8061;BME280;4073;42.626;25.386;2024-03-08T05:42:49;97346.28;;;5.46;100.00
8061;BME280;4073;42.626;25.386;2024-03-08T05:45:15;97360.88;;;5.60;100.00
8061;BME280;4073;42.626;25.386;2024-03-08T05:47:40;97362.28;;;5.63;100.00
8061;BME280;4073;42.626;25.386;2024-03-08T05:50:06;97362.75;;;5.60;100.00
8061;BME280;4073;42.626;25.386;2024-03-08T05:52:36;97363.75;;;5.59;100.00
8061;BME280;4073;42.626;25.386;2024-03-08T05:55:04;97371.50;;;5.60;100.00
8061;BME280;4073;42.626;25.386;2024-03-08T05:57:32;97369.66;;;5.61;100.00
8061;BME280;4073;42.626;25.386;2024-03-08T05:59:58;97367.34;;;5.64;100.00
8061;BME280;4073;42.626;25.386;2024-03-08T06:02:23;97362.50;;;5.61;100.00
8061;BME280;4073;42.626;25.386;2024-03-08T06:04:49;97375.97;;;5.71;100.00
8061;BME280;4073;42.626;25.386;2024-03-08T06:07:15;97375.00;;;5.77;100.00
8061;BME280;4073;42.626;25.386;2024-03-08T06:09:41;97377.81;;;5.82;100.00
8061;BME280;4073;42.626;25.386;2024-03-08T06:12:10;97384.25;;;5.86;100.00
8061;BME280;4073;42.626;25.386;2024-03-08T06:14:36;97391.38;;;5.86;100.00
8061;BME280;4073;42.626;25.386;2024-03-08T06:17:03;97388.97;;;5.84;100.00
8061;BME280;4073;42.626;25.386;2024-03-08T06:19:31;97396.38;;;5.82;100.00
8061;BME280;4073;42.626;25.386;2024-03-08T06:21:56;97387.38;;;5.83;100.00
8061;BME280;4073;42.626;25.386;2024-03-08T06:24:22;97387.38;;;5.83;100.00
8061;BME280;4073;42.626;25.386;2024-03-08T06:26:47;97385.53;;;5.84;100.00
8061;BME280;4073;42.626;25.386;2024-03-08T06:29:14;97396.56;;;5.81;100.00
8061;BME280;4073;42.626;25.386;2024-03-08T06:31:40;97393.09;;;5.80;100.00
8061;BME280;4073;42.626;25.386;2024-03-08T06:34:06;97400.88;;;5.82;100.00
8061;BME280;4073;42.626;25.386;2024-03-08T06:36:33;97401.22;;;5.85;100.00
8061;BME280;4073;42.626;25.386;2024-03-08T06:38:58;97404.66;;;5.86;100.00
8061;BME280;4073;42.626;25.386;2024-03-08T06:41:24;97402.72;;;5.81;100.00
8061;BME280;4073;42.626;25.386;2024-03-08T06:43:50;97396.22;;;5.89;100.00
8061;BME280;4073;42.626;25.386;2024-03-08T06:46:17;97406.28;;;5.87;100.00
8061;BME280;4073;42.626;25.386;2024-03-08T06:48:43;97408.47;;;5.90;100.00
8061;BME280;4073;42.626;25.386;2024-03-08T06:51:10;97398.75;;;5.95;100.00
8061;BME280;4073;42.626;25.386;2024-03-08T06:53:36;97407.84;;;5.99;100.00
8061;BME280;4073;42.626;25.386;2024-03-08T06:56:02;97413.25;;;6.04;100.00
8061;BME280;4073;42.626;25.386;2024-03-08T06:58:28;97410.59;;;6.04;100.00
8061;BME280;4073;42.626;25.386;2024-03-08T07:00:54;97416.00;;;6.09;100.00
8061;BME280;4073;42.626;25.386;2024-03-08T07:03:23;97418.19;;;6.12;100.00
8061;BME280;4073;42.626;25.386;2024-03-08T07:05:49;97424.88;;;6.15;100.00
8061;BME280;4073;42.626;25.386;2024-03-08T07:08:15;97429.94;;;6.16;100.00
8061;BME280;4073;42.626;25.386;2024-03-08T07:10:42;97433.06;;;6.13;100.00
8061;BME280;4073;42.626;25.386;2024-03-08T07:13:08;97431.00;;;6.15;100.00
8061;BME280;4073;42.626;25.386;2024-03-08T07:15:34;97428.09;;;6.17;100.00
8061;BME280;4073;42.626;25.386;2024-03-08T07:18:00;97435.00;;;6.18;100.00
8061;BME280;4073;42.626;25.386;2024-03-08T07:20:26;97429.00;;;6.22;100.00
8061;BME280;4073;42.626;25.386;2024-03-08T07:22:51;97430.38;;;6.25;100.00
8061;BME280;4073;42.626;25.386;2024-03-08T07:25:17;97440.50;;;6.28;100.00
8061;BME280;4073;42.626;25.386;2024-03-08T07:27:47;97442.94;;;6.29;100.00
8061;BME280;4073;42.626;25.386;2024-03-08T07:30:13;97438.56;;;6.23;100.00
8061;BME280;4073;42.626;25.386;2024-03-08T07:32:58;97452.31;;;6.20;100.00
8061;BME280;4073;42.626;25.386;2024-03-08T07:35:23;97444.19;;;6.27;100.00
8061;BME280;4073;42.626;25.386;2024-03-08T07:37:51;97444.69;;;6.24;100.00
8061;BME280;4073;42.626;25.386;2024-03-08T07:40:20;97443.16;;;6.28;100.00
8061;BME280;4073;42.626;25.386;2024-03-08T07:42:46;97453.31;;;6.31;100.00
8061;BME280;4073;42.626;25.386;2024-03-08T07:45:11;97442.47;;;6.32;100.00
8061;BME280;4073;42.626;25.386;2024-03-08T07:47:38;97440.13;;;6.36;100.00
8061;BME280;4073;42.626;25.386;2024-03-08T07:50:04;97434.25;;;6.34;100.00
8061;BME280;4073;42.626;25.386;2024-03-08T07:52:29;97451.28;;;6.49;100.00
8061;BME280;4073;42.626;25.386;2024-03-08T07:54:55;97451.34;;;6.54;100.00
8061;BME280;4073;42.626;25.386;2024-03-08T07:57:20;97441.19;;;6.51;100.00
8061;BME280;4073;42.626;25.386;2024-03-08T07:59:46;97452.00;;;6.61;100.00
8061;BME280;4073;42.626;25.386;2024-03-08T08:02:12;97457.06;;;6.63;100.00
8061;BME280;4073;42.626;25.386;2024-03-08T08:04:37;97452.34;;;6.65;100.00
8061;BME280;4073;42.626;25.386;2024-03-08T08:07:04;97454.81;;;6.71;100.00
8061;BME280;4073;42.626;25.386;2024-03-08T08:09:29;97459.91;;;6.73;100.00
8061;BME280;4073;42.626;25.386;2024-03-08T08:12:00;97447.03;;;6.65;100.00
8061;BME280;4073;42.626;25.386;2024-03-08T08:14:28;97467.41;;;6.76;100.00
8061;BME280;4073;42.626;25.386;2024-03-08T08:16:54;97471.09;;;6.75;100.00
8061;BME280;4073;42.626;25.386;2024-03-08T08:19:21;97465.47;;;6.71;100.00
8061;BME280;4073;42.626;25.386;2024-03-08T08:21:46;97470.47;;;6.68;100.00
8061;BME280;4073;42.626;25.386;2024-03-08T08:24:12;97473.34;;;6.66;100.00
8061;BME280;4073;42.626;25.386;2024-03-08T08:26:38;97469.47;;;6.57;100.00
8061;BME280;4073;42.626;25.386;2024-03-08T08:29:03;97476.47;;;6.63;100.00
8061;BME280;4073;42.626;25.386;2024-03-08T08:31:29;97477.28;;;6.64;100.00
8061;BME280;4073;42.626;25.386;2024-03-08T08:33:57;97471.31;;;6.57;100.00
8061;BME280;4073;42.626;25.386;2024-03-08T08:36:25;97474.53;;;6.59;100.00
8061;BME280;4073;42.626;25.386;2024-03-08T08:38:51;97481.38;;;6.55;100.00
8061;BME280;4073;42.626;25.386;2024-03-08T08:41:19;97466.66;;;6.36;100.00
8061;BME280;4073;42.626;25.386;2024-03-08T08:43:47;97485.84;;;6.38;100.00
8061;BME280;4073;42.626;25.386;2024-03-08T08:46:12;97477.69;;;6.28;100.00
8061;BME280;4073;42.626;25.386;2024-03-08T08:48:40;97473.97;;;6.29;100.00
8061;BME280;4073;42.626;25.386;2024-03-08T08:51:11;97481.44;;;6.15;100.00
8061;BME280;4073;42.626;25.386;2024-03-08T08:53:41;97482.22;;;6.16;100.00
8061;BME280;4073;42.626;25.386;2024-03-08T08:56:12;97487.06;;;6.19;100.00
8061;BME280;4073;42.626;25.386;2024-03-08T08:58:44;97475.16;;;6.21;100.00
8061;BME280;4073;42.626;25.386;2024-03-08T09:01:10;97476.31;;;6.25;100.00
8061;BME280;4073;42.626;25.386;2024-03-08T09:03:36;97478.16;;;6.25;100.00
8061;BME280;4073;42.626;25.386;2024-03-08T09:06:05;97474.91;;;6.23;100.00
8061;BME280;4073;42.626;25.386;2024-03-08T09:08:30;97473.47;;;6.15;100.00
8061;BME280;4073;42.626;25.386;2024-03-08T09:10:56;97472.31;;;6.11;100.00
8061;BME280;4073;42.626;25.386;2024-03-08T09:13:22;97477.59;;;6.11;100.00
8061;BME280;4073;42.626;25.386;2024-03-08T09:15:48;97474.06;;;6.06;100.00
8061;BME280;4073;42.626;25.386;2024-03-08T09:18:14;97455.63;;;5.99;100.00
8061;BME280;4073;42.626;25.386;2024-03-08T09:20:39;97477.16;;;6.03;100.00
8061;BME280;4073;42.626;25.386;2024-03-08T09:23:06;97481.53;;;6.09;100.00
8061;BME280;4073;42.626;25.386;2024-03-08T09:25:33;97477.59;;;6.11;100.00
8061;BME280;4073;42.626;25.386;2024-03-08T09:27:59;97479.25;;;6.12;100.00
8061;BME280;4073;42.626;25.386;2024-03-08T09:30:25;97482.22;;;6.16;100.00
8061;BME280;4073;42.626;25.386;2024-03-08T09:32:50;97490.19;;;6.16;100.00
8061;BME280;4073;42.626;25.386;2024-03-08T09:35:16;97494.31;;;6.23;100.00
8061;BME280;4073;42.626;25.386;2024-03-08T09:37:42;97491.63;;;6.35;100.00
8061;BME280;4073;42.626;25.386;2024-03-08T09:40:07;97490.34;;;6.37;100.00
8061;BME280;4073;42.626;25.386;2024-03-08T09:42:43;97496.69;;;6.36;100.00
8061;BME280;4073;42.626;25.386;2024-03-08T09:45:10;97477.81;;;6.21;100.00
8061;BME280;4073;42.626;25.386;2024-03-08T09:47:42;97494.03;;;6.36;100.00
8061;BME280;4073;42.626;25.386;2024-03-08T09:50:08;97496.59;;;6.31;100.00
8061;BME280;4073;42.626;25.386;2024-03-08T09:52:36;97498.47;;;6.31;100.00
8061;BME280;4073;42.626;25.386;2024-03-08T09:55:05;97495.56;;;6.32;100.00
8061;BME280;4073;42.626;25.386;2024-03-08T09:57:32;97484.97;;;6.49;100.00
8061;BME280;4073;42.626;25.386;2024-03-08T09:59:58;97494.97;;;6.58;100.00
8061;BME280;4073;42.626;25.386;2024-03-08T10:02:24;97485.66;;;6.72;100.00
8061;BME280;4073;42.626;25.386;2024-03-08T10:04:51;97480.22;;;6.79;100.00
8061;BME280;4073;42.626;25.386;2024-03-08T10:07:18;97487.22;;;7.01;100.00
8061;BME280;4073;42.626;25.386;2024-03-08T10:09:44;97492.22;;;7.14;100.00
8061;BME280;4073;42.626;25.386;2024-03-08T10:12:16;97489.81;;;7.29;100.00
8061;BME280;4073;42.626;25.386;2024-03-08T10:14:42;97483.84;;;7.39;100.00
8061;BME280;4073;42.626;25.386;2024-03-08T10:17:08;97486.41;;;7.34;100.00
8061;BME280;4073;42.626;25.386;2024-03-08T10:19:34;97490.59;;;7.46;100.00
8061;BME280;4073;42.626;25.386;2024-03-08T10:22:00;97487.44;;;7.49;100.00
8061;BME280;4073;42.626;25.386;2024-03-08T10:24:25;97486.78;;;7.59;100.00
8061;BME280;4073;42.626;25.386;2024-03-08T10:26:52;97493.31;;;7.68;100.00
8061;BME280;4073;42.626;25.386;2024-03-08T10:29:19;97484.63;;;7.77;100.00
8061;BME280;4073;42.626;25.386;2024-03-08T10:31:45;97474.22;;;7.76;100.00
8061;BME280;4073;42.626;25.386;2024-03-08T10:34:10;97488.31;;;7.71;100.00
8061;BME280;4073;42.626;25.386;2024-03-08T10:36:36;97484.50;;;7.67;100.00
8061;BME280;4073;42.626;25.386;2024-03-08T10:39:20;97484.25;;;7.69;100.00
8061;BME280;4073;42.626;25.386;2024-03-08T10:41:57;97474.91;;;7.66;100.00
8061;BME280;4073;42.626;25.386;2024-03-08T10:47:01;97481.59;;;7.69;100.00
8061;BME280;4073;42.626;25.386;2024-03-08T10:52:29;97473.22;;;7.60;100.00
8061;BME280;4073;42.626;25.386;2024-03-08T10:54:56;97474.03;;;7.61;100.00
8061;BME280;4073;42.626;25.386;2024-03-08T10:57:22;97479.69;;;7.64;100.00
8061;BME280;4073;42.626;25.386;2024-03-08T10:59:49;97476.75;;;7.66;100.00
8061;BME280;4073;42.626;25.386;2024-03-08T11:02:16;97479.81;;;7.74;100.00
8061;BME280;4073;42.626;25.386;2024-03-08T11:04:50;97480.84;;;7.90;100.00
8061;BME280;4073;42.626;25.386;2024-03-08T11:07:16;97478.72;;;7.92;100.00
8061;BME280;4073;42.626;25.386;2024-03-08T11:09:47;97481.81;;;7.84;100.00
8061;BME280;4073;42.626;25.386;2024-03-08T11:12:26;97479.34;;;7.99;100.00
8061;BME280;4073;42.626;25.386;2024-03-08T11:14:57;97480.69;;;8.01;100.00
8061;BME280;4073;42.626;25.386;2024-03-08T11:19:56;97482.50;;;7.96;100.00
8061;BME280;4073;42.626;25.386;2024-03-08T11:22:28;97478.84;;;8.02;100.00
8061;BME280;4073;42.626;25.386;2024-03-08T11:25:01;97482.97;;;8.15;100.00
8061;BME280;4073;42.626;25.386;2024-03-08T11:27:31;97479.00;;;8.34;100.00
8061;BME280;4073;42.626;25.386;2024-03-08T11:30:07;97476.44;;;8.44;100.00
8061;BME280;4073;42.626;25.386;2024-03-08T11:32:37;97474.25;;;8.67;100.00
8061;BME280;4073;42.626;25.386;2024-03-08T11:35:07;97485.09;;;8.82;100.00
8061;BME280;4073;42.626;25.386;2024-03-08T11:37:34;97481.38;;;8.83;100.00
8061;BME280;4073;42.626;25.386;2024-03-08T11:40:01;97472.53;;;8.78;100.00
8061;BME280;4073;42.626;25.386;2024-03-08T11:42:29;97480.84;;;8.86;100.00
8061;BME280;4073;42.626;25.386;2024-03-08T11:44:55;97471.44;;;8.79;100.00
8061;BME280;4073;42.626;25.386;2024-03-08T11:47:22;97473.91;;;8.59;100.00
8061;BME280;4073;42.626;25.386;2024-03-08T11:49:47;97474.75;;;8.64;100.00
8061;BME280;4073;42.626;25.386;2024-03-08T11:52:17;97473.22;;;8.68;100.00
8061;BME280;4073;42.626;25.386;2024-03-08T11:54:52;97468.44;;;8.70;100.00
8061;BME280;4073;42.626;25.386;2024-03-08T11:57:19;97476.75;;;8.74;100.00
8061;BME280;4073;42.626;25.386;2024-03-08T11:59:54;97437.22;;;8.39;100.00
8061;BME280;4073;42.626;25.386;2024-03-08T12:02:24;97465.63;;;8.55;100.00
8061;BME280;4073;42.626;25.386;2024-03-08T12:04:57;97473.78;;;8.44;100.00
8061;BME280;4073;42.626;25.386;2024-03-08T12:07:25;97462.19;;;8.33;100.00
8061;BME280;4073;42.626;25.386;2024-03-08T12:12:48;97470.16;;;8.55;100.00
8061;BME280;4073;42.626;25.386;2024-03-08T12:15:15;97467.03;;;8.63;100.00
8061;BME280;4073;42.626;25.386;2024-03-08T12:17:43;97475.00;;;8.63;100.00
8061;BME280;4073;42.626;25.386;2024-03-08T12:20:22;97474.63;;;8.49;100.00
8061;BME280;4073;42.626;25.386;2024-03-08T12:22:49;97462.06;;;8.45;100.00
8061;BME280;4073;42.626;25.386;2024-03-08T12:25:17;97469.88;;;8.51;100.00
8061;BME280;4073;42.626;25.386;2024-03-08T12:27:43;97467.97;;;8.52;100.00
8061;BME280;4073;42.626;25.386;2024-03-08T12:30:35;97465.72;;;8.17;100.00
8061;BME280;4073;42.626;25.386;2024-03-08T12:33:00;97465.28;;;8.03;100.00
8061;BME280;4073;42.626;25.386;2024-03-08T12:35:27;97457.38;;;7.87;100.00
8061;BME280;4073;42.626;25.386;2024-03-08T12:37:57;97456.31;;;7.88;100.00
8061;BME280;4073;42.626;25.386;2024-03-08T12:40:31;97465.78;;;8.00;100.00
8061;BME280;4073;42.626;25.386;2024-03-08T12:43:00;97456.31;;;8.10;100.00
8061;BME280;4073;42.626;25.386;2024-03-08T12:45:26;97461.94;;;8.35;100.00
8061;BME280;4073;42.626;25.386;2024-03-08T12:47:52;97451.59;;;8.65;100.00
8061;BME280;4073;42.626;25.386;2024-03-08T12:50:19;97467.06;;;8.94;100.00
8061;BME280;4073;42.626;25.386;2024-03-08T12:52:45;97448.28;;;9.11;100.00
8061;BME280;4073;42.626;25.386;2024-03-08T12:55:11;97466.88;;;9.01;100.00
8061;BME280;4073;42.626;25.386;2024-03-08T12:57:37;97450.56;;;8.97;100.00
8061;BME280;4073;42.626;25.386;2024-03-08T13:00:04;97470.53;;;8.95;100.00
8061;BME280;4073;42.626;25.386;2024-03-08T13:02:30;97470.91;;;9.08;100.00
8061;BME280;4073;42.626;25.386;2024-03-08T13:05:00;97466.13;;;9.10;100.00
8061;BME280;4073;42.626;25.386;2024-03-08T13:07:26;97458.53;;;8.92;100.00
8061;BME280;4073;42.626;25.386;2024-03-08T13:09:55;97471.03;;;8.92;100.00
8061;BME280;4073;42.626;25.386;2024-03-08T13:12:23;97468.25;;;8.77;100.00
8061;BME280;4073;42.626;25.386;2024-03-08T13:14:49;97464.56;;;8.83;100.00
8061;BME280;4073;42.626;25.386;2024-03-08T13:17:15;97452.28;;;8.82;100.00
8061;BME280;4073;42.626;25.386;2024-03-08T13:19:41;97462.34;;;8.75;100.00